Time;durP1;ratioP1;P1;durP2;ratioP2;P2;SDS_P1;SDS_P2;PMS_P1;PMS_P2;Temp;Humidity;BMP_temperature;BMP_pressure;BME280_temperature;BME280_humidity;BME280_pressure;Samples;Min_cycle;Max_cycle;Signal;HPM_P1;HPM_P2
2021/01/01 00:01:39;;;;;;;3.60;3.30;;;4.20;99.30;;;;;;5035373;28;20727;-70
2021/01/01 00:04:07;;;;;;;3.50;2.88;;;4.10;99.50;;;;;;5035518;28;20192;-70
2021/01/01 00:06:34;;;;;;;3.17;1.85;;;4.20;99.50;;;;;;5035170;28;20194;-70
2021/01/01 00:09:00;;;;;;;2.58;2.08;;;4.10;99.40;;;;;;5035345;28;20218;-70
2021/01/01 00:11:26;;;;;;;1.77;1.67;;;4.10;99.40;;;;;;5035300;28;20198;-70
2021/01/01 00:13:52;;;;;;;3.45;2.75;;;4.20;99.30;;;;;;5035381;28;20410;-71
2021/01/01 00:16:18;;;;;;;2.00;1.80;;;4.00;99.40;;;;;;5035011;28;20178;-70
2021/01/01 00:18:43;;;;;;;1.30;1.30;;;3.80;99.80;;;;;;5035009;28;20205;-70
2021/01/01 00:21:10;;;;;;;1.97;1.87;;;3.80;99.90;;;;;;5034908;28;20609;-70
2021/01/01 00:23:39;;;;;;;2.92;2.08;;;3.80;99.90;;;;;;5035179;28;20227;-70
2021/01/01 00:26:12;;;;;;;2.38;2.17;;;3.80;99.90;;;;;;5034809;28;20572;-70
2021/01/01 00:28:45;;;;;;;1.95;1.75;;;4.00;99.90;;;;;;5034280;28;20560;-70
2021/01/01 00:31:15;;;;;;;1.83;1.70;;;3.90;99.80;;;;;;5035210;28;20171;-70
2021/01/01 00:33:41;;;;;;;1.10;1.00;;;4.00;99.80;;;;;;5034878;28;20166;-71
2021/01/01 00:36:07;;;;;;;1.60;1.33;;;4.10;99.60;;;;;;5034665;28;20697;-70
2021/01/01 00:38:33;;;;;;;1.73;1.63;;;4.20;99.50;;;;;;5035070;28;20525;-70
2021/01/01 00:40:58;;;;;;;1.03;1.03;;;4.30;99.30;;;;;;5034735;28;20185;-70
2021/01/01 00:43:24;;;;;;;1.00;1.00;;;4.10;99.20;;;;;;5034853;28;20328;-70
2021/01/01 00:45:50;;;;;;;1.77;1.67;;;4.00;99.60;;;;;;5033456;28;20243;-70
2021/01/01 00:48:16;;;;;;;2.77;2.57;;;4.10;99.70;;;;;;5032926;28;20559;-70
2021/01/01 00:50:41;;;;;;;1.63;1.53;;;4.10;99.50;;;;;;5034259;28;20398;-70
2021/01/01 00:53:07;;;;;;;1.23;1.07;;;4.20;99.40;;;;;;5034685;28;20724;-70
2021/01/01 00:55:32;;;;;;;1.53;1.43;;;4.20;99.20;;;;;;5034386;28;20170;-70
2021/01/01 00:57:59;;;;;;;1.50;1.40;;;4.20;99.20;;;;;;5034299;28;20178;-71
2021/01/01 01:00:24;;;;;;;1.02;1.02;;;4.20;99.20;;;;;;5034179;28;20243;-70
2021/01/01 01:02:50;;;;;;;3.23;1.23;;;4.20;99.30;;;;;;5034245;28;20173;-70
2021/01/01 01:05:16;;;;;;;1.17;1.07;;;4.20;99.20;;;;;;5034182;28;20263;-70
2021/01/01 01:07:41;;;;;;;1.13;1.03;;;4.20;99.10;;;;;;5034239;28;20285;-70
2021/01/01 01:10:07;;;;;;;0.83;0.83;;;4.10;99.30;;;;;;5034486;28;20191;-70
2021/01/01 01:12:33;;;;;;;1.10;1.00;;;4.20;99.30;;;;;;5034129;28;20229;-70
2021/01/01 01:14:59;;;;;;;1.07;0.97;;;4.00;99.20;;;;;;5034299;28;20573;-70
2021/01/01 01:17:24;;;;;;;1.03;0.87;;;4.00;99.10;;;;;;5033970;28;20174;-70
2021/01/01 01:19:50;;;;;;;1.40;1.30;;;3.90;99.30;;;;;;5033936;28;20255;-70
2021/01/01 01:22:16;;;;;;;1.30;1.20;;;3.80;99.50;;;;;;5032649;28;20269;-70
2021/01/01 01:24:41;;;;;;;1.03;0.93;;;3.90;99.70;;;;;;5034340;28;20183;-70
2021/01/01 01:27:07;;;;;;;0.80;0.80;;;3.90;99.70;;;;;;5033668;28;20206;-70
2021/01/01 01:29:32;;;;;;;0.63;0.63;;;3.70;99.70;;;;;;5033779;28;20178;-70
2021/01/01 01:31:58;;;;;;;0.80;0.80;;;3.80;99.90;;;;;;5033901;28;20241;-70
2021/01/01 01:34:24;;;;;;;1.17;1.07;;;3.90;99.90;;;;;;5033878;28;20171;-70
2021/01/01 01:36:49;;;;;;;1.00;0.90;;;3.90;99.70;;;;;;5033609;28;20302;-70
2021/01/01 01:39:15;;;;;;;0.83;0.83;;;4.00;99.70;;;;;;5033773;28;20197;-70
2021/01/01 01:41:40;;;;;;;1.27;1.00;;;4.00;99.60;;;;;;5032916;28;20205;-71
2021/01/01 01:44:06;;;;;;;0.60;0.60;;;4.00;99.50;;;;;;5032444;28;20175;-70
2021/01/01 01:46:43;;;;;;;0.80;0.80;;;4.00;99.40;;;;;;5033490;28;20190;-70
2021/01/01 01:49:14;;;;;;;0.60;0.60;;;4.00;99.50;;;;;;5033673;28;20509;-70
2021/01/01 01:51:49;;;;;;;0.70;0.70;;;4.10;99.40;;;;;;5033516;28;20160;-70
2021/01/01 01:54:16;;;;;;;1.50;1.40;;;3.90;99.60;;;;;;5033945;28;20184;-71
2021/01/01 01:56:43;;;;;;;0.85;0.85;;;3.90;99.60;;;;;;5033519;28;20177;-70
2021/01/01 01:59:11;;;;;;;1.17;1.08;;;4.00;99.60;;;;;;5033729;28;20244;-70
2021/01/01 02:01:37;;;;;;;0.60;0.60;;;4.00;99.60;;;;;;5033298;28;20627;-70
2021/01/01 02:04:02;;;;;;;0.60;0.60;;;4.10;99.50;;;;;;5033546;28;20173;-70
2021/01/01 02:06:28;;;;;;;0.93;0.90;;;4.00;99.20;;;;;;5033261;28;20206;-70
2021/01/01 02:08:54;;;;;;;0.60;0.60;;;4.10;99.20;;;;;;5033310;28;20200;-70
2021/01/01 02:11:20;;;;;;;0.70;0.70;;;4.10;99.20;;;;;;5033548;28;20180;-71
2021/01/01 02:13:49;;;;;;;0.70;0.70;;;4.10;99.20;;;;;;5033454;28;20455;-70
2021/01/01 02:16:16;;;;;;;0.70;0.70;;;4.10;99.50;;;;;;5033235;28;20228;-71
2021/01/01 02:18:43;;;;;;;0.70;0.70;;;4.20;99.10;;;;;;5033374;28;20213;-70
2021/01/01 02:21:13;;;;;;;0.70;0.70;;;4.20;99.00;;;;;;5033236;28;20253;-70
2021/01/01 02:23:38;;;;;;;0.70;0.70;;;4.20;98.80;;;;;;5033259;28;20181;-70
2021/01/01 02:26:04;;;;;;;12.87;6.93;;;4.20;98.80;;;;;;5033095;28;20568;-71
2021/01/01 02:28:30;;;;;;;9.80;5.50;;;4.00;99.00;;;;;;5033274;28;20188;-71
2021/01/01 02:30:56;;;;;;;5.10;2.67;;;4.00;99.20;;;;;;5033164;28;20450;-70
2021/01/01 02:33:22;;;;;;;4.10;2.37;;;3.80;99.40;;;;;;5033270;28;20405;-71
2021/01/01 02:35:47;;;;;;;1.67;1.57;;;4.00;99.50;;;;;;5033343;28;20405;-70
2021/01/01 02:38:13;;;;;;;1.00;0.97;;;4.00;99.30;;;;;;5033006;28;20279;-70
2021/01/01 02:40:38;;;;;;;1.30;1.00;;;4.10;99.10;;;;;;5033059;28;20171;-70
2021/01/01 02:43:04;;;;;;;0.67;0.67;;;4.20;99.00;;;;;;5033342;28;20174;-70
2021/01/01 02:45:30;;;;;;;0.50;0.50;;;4.10;98.80;;;;;;5033065;28;20246;-70
2021/01/01 02:47:55;;;;;;;0.90;0.60;;;4.10;98.70;;;;;;5032960;28;20201;-70
2021/01/01 02:50:21;;;;;;;0.40;0.40;;;4.10;98.70;;;;;;5032969;28;20254;-70
2021/01/01 02:52:47;;;;;;;0.40;0.40;;;4.20;98.70;;;;;;5035628;28;20190;-70
2021/01/01 02:55:13;;;;;;;0.50;0.50;;;4.20;98.60;;;;;;5036862;28;20480;-70
2021/01/01 02:57:39;;;;;;;0.40;0.40;;;4.20;98.50;;;;;;5036661;28;20631;-70
2021/01/01 03:00:06;;;;;;;0.65;0.65;;;4.10;98.40;;;;;;5036450;28;20674;-70
2021/01/01 03:02:32;;;;;;;0.40;0.40;;;4.10;98.50;;;;;;5036533;28;20253;-70
2021/01/01 03:04:58;;;;;;;0.40;0.40;;;4.10;98.60;;;;;;5036504;28;20171;-70
2021/01/01 03:07:23;;;;;;;0.60;0.60;;;4.10;98.70;;;;;;5036283;28;20212;-70
2021/01/01 03:09:49;;;;;;;0.30;0.30;;;4.00;98.70;;;;;;5036366;28;20674;-70
2021/01/01 03:12:14;;;;;;;6.33;1.37;;;4.00;98.80;;;;;;5036602;28;20196;-70
2021/01/01 03:14:40;;;;;;;0.40;0.40;;;4.00;98.80;;;;;;5036557;28;20174;-70
2021/01/01 03:17:06;;;;;;;0.50;0.50;;;4.00;98.70;;;;;;5036104;28;20181;-70
2021/01/01 03:19:31;;;;;;;0.50;0.50;;;4.00;98.70;;;;;;5036186;28;20280;-71
2021/01/01 03:21:57;;;;;;;0.60;0.60;;;3.90;98.70;;;;;;5036275;28;20539;-70
2021/01/01 03:24:22;;;;;;;0.50;0.40;;;3.90;98.80;;;;;;5036517;28;20162;-70
2021/01/01 03:26:48;;;;;;;0.50;0.50;;;4.00;98.90;;;;;;5035816;28;20190;-70
2021/01/01 03:29:14;;;;;;;0.50;0.50;;;4.00;98.80;;;;;;5034754;28;20189;-70
2021/01/01 03:31:39;;;;;;;0.57;0.50;;;4.00;98.60;;;;;;5035945;28;20170;-70
2021/01/01 03:34:05;;;;;;;0.60;0.50;;;4.00;98.60;;;;;;5035978;28;20167;-70
2021/01/01 03:36:30;;;;;;;0.40;0.40;;;3.90;98.70;;;;;;5035951;28;20652;-70
2021/01/01 03:38:56;;;;;;;0.40;0.40;;;3.90;98.80;;;;;;5035897;28;20197;-70
2021/01/01 03:41:22;;;;;;;0.50;0.50;;;3.90;98.60;;;;;;5035841;28;20182;-70
2021/01/01 03:43:48;;;;;;;0.40;0.40;;;4.00;98.60;;;;;;5035974;28;20197;-70
2021/01/01 03:46:14;;;;;;;0.50;0.40;;;4.00;98.60;;;;;;5035573;28;20679;-70
2021/01/01 03:48:39;;;;;;;0.50;0.50;;;3.90;98.40;;;;;;5035610;28;20652;-71
2021/01/01 03:51:05;;;;;;;0.40;0.40;;;3.90;98.40;;;;;;5035865;28;20172;-70
2021/01/01 03:53:31;;;;;;;0.40;0.40;;;3.90;98.50;;;;;;5035578;28;20258;-70
2021/01/01 03:55:56;;;;;;;0.50;0.50;;;3.80;98.40;;;;;;5035546;28;20410;-70
2021/01/01 03:58:22;;;;;;;0.57;0.53;;;3.70;98.40;;;;;;5035606;28;20185;-70
2021/01/01 04:00:48;;;;;;;0.40;0.40;;;3.70;98.50;;;;;;5035328;28;20645;-70
2021/01/01 04:03:13;;;;;;;0.70;0.70;;;3.70;98.50;;;;;;5034955;28;20184;-70
2021/01/01 04:05:39;;;;;;;0.50;0.50;;;3.60;98.70;;;;;;5035493;28;20170;-70
2021/01/01 04:08:05;;;;;;;0.97;0.80;;;3.60;98.80;;;;;;5035494;28;20167;-70
2021/01/01 04:10:30;;;;;;;0.60;0.60;;;3.60;98.70;;;;;;5035277;28;20170;-70
2021/01/01 04:12:56;;;;;;;0.63;0.63;;;3.50;99.00;;;;;;5034136;28;20417;-70
2021/01/01 04:15:22;;;;;;;0.80;0.60;;;3.60;98.90;;;;;;5035141;28;20166;-71
2021/01/01 04:17:47;;;;;;;0.60;0.60;;;3.70;98.80;;;;;;5035129;28;20174;-70
2021/01/01 04:20:13;;;;;;;0.60;0.60;;;3.70;98.70;;;;;;5035370;28;20228;-70
2021/01/01 04:22:39;;;;;;;0.73;0.73;;;3.80;98.60;;;;;;5035454;28;20181;-70
2021/01/01 04:25:05;;;;;;;0.67;0.67;;;3.80;98.60;;;;;;5035088;28;20408;-70
2021/01/01 04:27:31;;;;;;;0.80;0.80;;;3.80;98.50;;;;;;5034915;28;20678;-70
2021/01/01 04:29:56;;;;;;;0.73;0.73;;;3.70;98.60;;;;;;5035055;28;20226;-70
2021/01/01 04:32:22;;;;;;;0.70;0.70;;;3.60;98.70;;;;;;5035054;28;20176;-70
2021/01/01 04:34:48;;;;;;;0.60;0.60;;;3.50;98.90;;;;;;5035040;28;20176;-70
2021/01/01 04:37:13;;;;;;;0.50;0.50;;;3.30;99.10;;;;;;5034748;28;20173;-70
2021/01/01 04:39:39;;;;;;;0.60;0.60;;;3.30;99.30;;;;;;5034849;28;20600;-70
2021/01/01 04:42:05;;;;;;;0.40;0.40;;;3.30;99.30;;;;;;5033627;28;20176;-70
2021/01/01 04:44:31;;;;;;;0.50;0.50;;;3.30;99.20;;;;;;5034828;28;20170;-70
2021/01/01 04:47:03;;;;;;;0.50;0.50;;;3.20;99.10;;;;;;5034428;28;20248;-70
2021/01/01 04:49:29;;;;;;;0.50;0.50;;;3.20;99.40;;;;;;5034861;28;20200;-70
2021/01/01 04:51:56;;;;;;;0.40;0.40;;;3.20;99.50;;;;;;5034585;28;20178;-70
2021/01/01 04:54:27;;;;;;;0.63;0.63;;;3.30;99.40;;;;;;5034783;28;20530;-70
2021/01/01 04:56:52;;;;;;;0.45;0.45;;;3.40;99.20;;;;;;5034267;28;20172;-71
2021/01/01 04:59:18;;;;;;;0.50;0.50;;;3.50;99.20;;;;;;5033055;28;20617;-70
2021/01/01 05:01:44;;;;;;;0.63;0.63;;;3.50;98.90;;;;;;5034282;28;20232;-70
2021/01/01 05:04:11;;;;;;;0.50;0.50;;;3.40;98.70;;;;;;5034355;28;20640;-70
2021/01/01 05:06:39;;;;;;;1.35;0.90;;;3.40;98.90;;;;;;5034069;28;20206;-70
2021/01/01 05:09:05;;;;;;;0.40;0.40;;;3.50;98.90;;;;;;5034328;28;20526;-70
2021/01/01 05:11:31;;;;;;;0.68;0.40;;;3.60;98.80;;;;;;5034105;28;20695;-70
2021/01/01 05:14:02;;;;;;;0.50;0.50;;;3.60;98.60;;;;;;5034790;28;20179;-70
2021/01/01 05:16:28;;;;;;;0.50;0.50;;;3.60;98.50;;;;;;5034056;28;20207;-70
2021/01/01 05:18:54;;;;;;;0.50;0.50;;;3.70;98.40;;;;;;5033932;28;20612;-70
2021/01/01 05:21:27;;;;;;;0.50;0.50;;;3.70;98.30;;;;;;5033971;28;20181;-70
2021/01/01 05:23:56;;;;;;;0.85;0.82;;;3.70;98.30;;;;;;5034169;28;20184;-70
2021/01/01 05:26:28;;;;;;;0.60;0.60;;;3.70;98.40;;;;;;5033602;28;20193;-70
2021/01/01 05:29:07;;;;;;;0.60;0.60;;;3.60;98.40;;;;;;5033928;28;20201;-70
2021/01/01 05:31:40;;;;;;;0.70;0.70;;;3.70;98.30;;;;;;5033883;28;20234;-70
2021/01/01 05:34:09;;;;;;;0.55;0.55;;;3.60;98.20;;;;;;5032705;28;20189;-70
2021/01/01 05:36:42;;;;;;;0.73;0.73;;;3.50;98.30;;;;;;5033597;28;20664;-70
2021/01/01 05:39:14;;;;;;;0.70;0.70;;;3.40;98.50;;;;;;5032419;28;20202;-70
2021/01/01 05:41:42;;;;;;;0.60;0.60;;;3.40;98.70;;;;;;5033917;28;20177;-70
2021/01/01 05:44:10;;;;;;;0.55;0.55;;;3.40;98.60;;;;;;5033727;28;20217;-70
2021/01/01 05:46:57;;;;;;;1.05;0.95;;;3.40;98.60;;;;;;5033454;28;20189;-70
2021/01/01 05:52:47;;;;;;;0.63;0.60;;;3.30;98.60;;;;;;5034062;28;20684;-70
2021/01/01 05:55:13;;;;;;;1.02;0.95;;;3.40;98.80;;;;;;5033528;28;20258;-70
2021/01/01 05:57:39;;;;;;;2.00;1.47;;;3.40;98.70;;;;;;5033385;28;20207;-70
2021/01/01 06:00:05;;;;;;;2.17;1.65;;;3.40;98.60;;;;;;5033246;28;20204;-70
2021/01/01 06:02:38;;;;;;;1.67;1.37;;;3.30;98.60;;;;;;5033637;28;20223;-70
2021/01/01 06:05:09;;;;;;;2.00;1.05;;;3.40;98.70;;;;;;5033319;28;20438;-70
2021/01/01 06:07:39;;;;;;;1.85;1.13;;;3.40;98.70;;;;;;5033767;28;20243;-70
2021/01/01 06:10:07;;;;;;;3.00;1.05;;;3.30;98.60;;;;;;5034062;28;20192;-72
2021/01/01 06:12:40;;;;;;;0.70;0.70;;;3.30;98.80;;;;;;5033433;28;20181;-70
2021/01/01 06:18:32;;;;;;;2.40;1.30;;;3.30;98.80;;;;;;5033684;28;20219;-69
2021/01/01 06:21:03;;;;;;;1.77;1.13;;;3.20;98.70;;;;;;5033503;28;20500;-69
2021/01/01 06:23:37;;;;;;;0.90;0.80;;;3.10;98.90;;;;;;5033727;28;20239;-69
2021/01/01 06:26:06;;;;;;;0.70;0.70;;;3.10;99.10;;;;;;5033460;28;20228;-70
2021/01/01 06:28:34;;;;;;;1.20;1.10;;;3.10;99.10;;;;;;5036447;28;20253;-68
2021/01/01 06:31:00;;;;;;;0.70;0.70;;;3.10;99.10;;;;;;5037457;28;20669;-69
2021/01/01 06:33:26;;;;;;;0.50;0.50;;;3.00;99.20;;;;;;5037288;28;20186;-69
2021/01/01 06:35:52;;;;;;;1.00;1.00;;;3.10;99.10;;;;;;5037029;28;20250;-71
2021/01/01 06:38:47;;;;;;;0.77;0.60;;;3.10;99.00;;;;;;5037290;28;20438;-73
2021/01/01 06:41:43;;;;;;;0.60;0.60;;;3.10;99.00;;;;;;5018924;28;20976;-70
2021/01/01 06:44:09;;;;;;;2.10;0.85;;;3.20;98.80;;;;;;5037286;28;20177;-67
2021/01/01 06:46:40;;;;;;;1.40;1.30;;;4.30;99.90;;;;;;5036994;28;20202;-70
2021/01/01 06:49:08;;;;;;;1.13;1.02;;;5.30;99.90;;;;;;5036824;28;20191;-70
2021/01/01 06:51:34;;;;;;;1.02;0.90;;;5.40;97.50;;;;;;5036969;28;20167;-70
2021/01/01 06:54:13;;;;;;;0.90;0.90;;;5.20;95.70;;;;;;5036731;28;20170;-69
2021/01/01 06:56:43;;;;;;;0.70;0.70;;;4.90;95.10;;;;;;5036600;28;20193;-70
2021/01/01 06:59:13;;;;;;;1.35;1.25;;;4.40;95.20;;;;;;5036524;28;20205;-70
2021/01/01 07:01:44;;;;;;;1.13;1.02;;;4.00;95.80;;;;;;5036514;28;20185;-69
2021/01/01 07:04:11;;;;;;;1.02;0.93;;;3.90;96.10;;;;;;5035450;28;20210;-70
2021/01/01 07:06:38;;;;;;;0.90;0.90;;;3.70;96.40;;;;;;5036261;28;20215;-69
2021/01/01 07:09:05;;;;;;;1.90;1.33;;;3.60;96.60;;;;;;5036542;28;20185;-70
2021/01/01 07:11:33;;;;;;;0.90;0.90;;;3.50;96.90;;;;;;5036471;28;20164;-70
2021/01/01 07:14:08;;;;;;;0.98;0.90;;;3.50;97.00;;;;;;5036520;28;20534;-70
2021/01/01 07:16:43;;;;;;;1.17;1.10;;;3.30;96.80;;;;;;5036173;28;20610;-70
2021/01/01 07:19:09;;;;;;;1.10;0.80;;;3.20;96.90;;;;;;5035124;28;20198;-70
2021/01/01 07:21:35;;;;;;;1.35;0.93;;;3.10;96.90;;;;;;5036271;28;20172;-70
2021/01/01 07:24:01;;;;;;;0.70;0.70;;;3.00;96.80;;;;;;5036256;28;20213;-69
2021/01/01 07:26:27;;;;;;;0.50;0.50;;;2.80;97.10;;;;;;5035883;28;20560;-70
2021/01/01 07:28:55;;;;;;;1.20;1.20;;;2.60;97.20;;;;;;5036104;28;20188;-70
2021/01/01 07:31:21;;;;;;;0.60;0.60;;;2.50;97.40;;;;;;5035989;28;20417;-70
2021/01/01 07:33:47;;;;;;;0.40;0.40;;;2.40;97.60;;;;;;5036194;28;20175;-70
2021/01/01 07:36:13;;;;;;;1.10;0.70;;;2.40;97.80;;;;;;5035754;28;20167;-70
2021/01/01 07:38:44;;;;;;;0.95;0.73;;;2.40;98.00;;;;;;5034710;28;20680;-70
2021/01/01 07:41:10;;;;;;;0.70;0.70;;;2.40;98.00;;;;;;5034544;28;20268;-69
2021/01/01 07:43:38;;;;;;;1.42;1.20;;;2.40;98.00;;;;;;5035750;28;20197;-70
2021/01/01 07:46:08;;;;;;;1.27;1.17;;;2.40;98.00;;;;;;5035734;28;20191;-70
2021/01/01 07:48:35;;;;;;;3.10;1.85;;;2.50;98.10;;;;;;5035612;28;20209;-70
2021/01/01 07:51:06;;;;;;;1.50;1.40;;;2.70;98.10;;;;;;5035681;28;20175;-70
2021/01/01 07:53:32;;;;;;;1.02;0.80;;;2.70;97.90;;;;;;5036079;28;20167;-71
2021/01/01 07:55:59;;;;;;;1.13;1.02;;;2.80;97.60;;;;;;5035783;28;20708;-71
2021/01/01 07:58:27;;;;;;;2.83;2.60;;;2.90;97.50;;;;;;5035735;28;20203;-71
2021/01/01 08:00:59;;;;;;;2.20;2.00;;;3.00;97.50;;;;;;5035712;28;20271;-71
2021/01/01 08:03:25;;;;;;;3.65;2.03;;;3.00;97.30;;;;;;5035551;28;20263;-71
2021/01/01 08:05:52;;;;;;;2.33;1.83;;;3.10;97.10;;;;;;5033926;28;20178;-71
2021/01/01 08:08:20;;;;;;;3.20;2.10;;;3.20;97.10;;;;;;5035297;28;20203;-71
2021/01/01 08:10:47;;;;;;;4.07;3.03;;;3.30;97.30;;;;;;5035484;28;20176;-71
2021/01/01 08:13:17;;;;;;;8.25;4.57;;;3.40;97.30;;;;;;5035462;28;20254;-71
2021/01/01 08:15:43;;;;;;;4.03;3.35;;;3.60;97.30;;;;;;5033777;28;20188;-71
2021/01/01 08:18:16;;;;;;;3.70;3.03;;;3.70;97.20;;;;;;5035203;28;20172;-71
2021/01/01 08:20:46;;;;;;;4.30;2.40;;;3.90;96.90;;;;;;5035174;28;20154;-71
2021/01/01 08:23:22;;;;;;;3.80;3.15;;;4.10;96.60;;;;;;5035258;28;20173;-71
2021/01/01 08:25:48;;;;;;;4.38;3.92;;;4.20;96.30;;;;;;5034462;28;20197;-71
2021/01/01 08:28:26;;;;;;;2.92;2.58;;;4.20;95.90;;;;;;5034906;28;20190;-71
2021/01/01 08:31:03;;;;;;;2.65;2.45;;;4.30;95.80;;;;;;5035019;28;20261;-71
2021/01/01 08:33:40;;;;;;;2.60;2.28;;;4.30;95.70;;;;;;5035152;28;20222;-71
2021/01/01 08:36:11;;;;;;;4.78;3.05;;;4.30;95.70;;;;;;5033414;28;20706;-71
2021/01/01 08:38:42;;;;;;;3.13;2.75;;;4.30;95.60;;;;;;5034958;28;20190;-71
2021/01/01 08:41:15;;;;;;;4.10;1.92;;;4.40;95.60;;;;;;5034894;28;20159;-71
2021/01/01 08:43:41;;;;;;;2.70;2.50;;;4.30;95.50;;;;;;5034971;28;20569;-71
2021/01/01 08:46:17;;;;;;;4.53;3.40;;;4.40;95.50;;;;;;5034411;28;20259;-71
2021/01/01 08:48:43;;;;;;;4.25;2.35;;;4.70;95.50;;;;;;5034562;28;20236;-71
2021/01/01 08:51:08;;;;;;;4.43;4.03;;;5.10;94.90;;;;;;5034222;28;20254;-71
2021/01/01 08:53:41;;;;;;;3.57;2.90;;;5.50;94.50;;;;;;5034481;28;20402;-71
2021/01/01 08:56:08;;;;;;;3.22;2.88;;;6.10;93.90;;;;;;5034420;28;20576;-71
2021/01/01 08:58:34;;;;;;;8.52;3.33;;;6.80;92.50;;;;;;5034469;28;20213;-71
2021/01/01 09:01:14;;;;;;;3.42;2.80;;;7.90;90.80;;;;;;5034223;28;20541;-71
2021/01/01 09:03:42;;;;;;;8.23;5.47;;;9.10;85.80;;;;;;5034423;28;20169;-71
2021/01/01 09:06:18;;;;;;;22.17;12.70;;;10.00;80.00;;;;;;5034030;28;20534;-71
2021/01/01 09:08:44;;;;;;;8.55;5.95;;;10.20;77.90;;;;;;5034287;28;20670;-71
2021/01/01 09:11:20;;;;;;;8.70;6.37;;;10.10;76.20;;;;;;5034041;28;20167;-71
2021/01/01 09:13:58;;;;;;;1.90;1.75;;;9.80;77.00;;;;;;5034368;28;20459;-71
2021/01/01 09:16:24;;;;;;;2.63;2.35;;;9.40;76.50;;;;;;5034053;28;20208;-71
2021/01/01 09:18:49;;;;;;;4.10;2.70;;;9.10;77.90;;;;;;5034099;28;20650;-72
2021/01/01 09:21:17;;;;;;;2.23;2.13;;;8.80;79.50;;;;;;5034018;28;20342;-71
2021/01/01 09:23:51;;;;;;;2.78;2.05;;;8.50;80.30;;;;;;5034109;28;20316;-71
2021/01/01 09:26:22;;;;;;;2.03;1.85;;;8.30;81.60;;;;;;5033734;28;20195;-72
2021/01/01 09:28:58;;;;;;;4.03;3.72;;;8.00;82.30;;;;;;5033819;28;20222;-71
2021/01/01 09:31:23;;;;;;;4.97;2.40;;;7.80;82.90;;;;;;5032648;28;20624;-71
2021/01/01 09:33:59;;;;;;;1.50;1.40;;;7.60;84.30;;;;;;5034016;28;20175;-72
2021/01/01 09:36:24;;;;;;;2.15;2.05;;;7.20;84.90;;;;;;5033712;28;20182;-71
2021/01/01 09:38:50;;;;;;;1.77;1.67;;;6.90;86.90;;;;;;5033666;28;20191;-71
2021/01/01 09:41:16;;;;;;;1.50;1.40;;;6.70;89.00;;;;;;5033779;28;20664;-71
2021/01/01 09:43:43;;;;;;;1.15;0.77;;;6.40;88.60;;;;;;5033757;28;20179;-71
2021/01/01 09:46:09;;;;;;;0.80;0.80;;;6.30;89.40;;;;;;5032645;28;20199;-71
2021/01/01 09:48:35;;;;;;;1.17;0.90;;;6.40;90.10;;;;;;5032616;28;20226;-71
2021/01/01 09:51:01;;;;;;;2.67;1.03;;;6.40;89.60;;;;;;5032649;28;20254;-71
2021/01/01 09:53:26;;;;;;;0.83;0.83;;;6.40;89.50;;;;;;5033395;28;20167;-71
2021/01/01 09:55:52;;;;;;;0.70;0.70;;;6.60;89.20;;;;;;5033455;28;20171;-71
2021/01/01 09:58:18;;;;;;;0.73;0.73;;;6.60;88.90;;;;;;5033469;28;20222;-71
2021/01/01 10:00:44;;;;;;;1.20;1.15;;;6.70;88.50;;;;;;5032965;28;20201;-71
2021/01/01 10:03:10;;;;;;;1.20;1.00;;;6.90;87.50;;;;;;5033254;28;20181;-71
2021/01/01 10:05:36;;;;;;;1.20;1.10;;;6.90;87.80;;;;;;5031998;28;20171;-71
2021/01/01 10:08:01;;;;;;;1.40;1.30;;;6.80;88.70;;;;;;5033639;28;20691;-71
2021/01/01 10:10:29;;;;;;;0.90;0.90;;;6.90;89.60;;;;;;5033359;28;20198;-71
2021/01/01 10:12:55;;;;;;;1.40;1.30;;;6.80;89.60;;;;;;5033698;28;20167;-71
2021/01/01 10:15:21;;;;;;;3.13;2.90;;;6.70;90.00;;;;;;5033238;28;20241;-72
2021/01/01 10:17:46;;;;;;;2.33;2.10;;;6.80;90.10;;;;;;5033133;28;20167;-72
2021/01/01 10:20:12;;;;;;;3.67;3.37;;;7.00;89.10;;;;;;5033257;28;20269;-75
2021/01/01 10:22:38;;;;;;;4.00;3.60;;;7.10;88.40;;;;;;5033477;28;20179;-72
2021/01/01 10:25:04;;;;;;;1.80;1.27;;;7.20;87.40;;;;;;5033562;28;20438;-72
2021/01/01 10:27:30;;;;;;;1.42;1.33;;;7.20;87.80;;;;;;5031833;28;20740;-73
2021/01/01 10:29:55;;;;;;;2.07;1.67;;;7.20;88.40;;;;;;5033682;28;20281;-70
2021/01/01 10:32:21;;;;;;;1.20;1.20;;;7.30;88.50;;;;;;5033812;28;20259;-70
2021/01/01 10:34:46;;;;;;;2.53;2.27;;;7.20;87.90;;;;;;5033250;28;20703;-69
2021/01/01 10:37:12;;;;;;;3.07;2.70;;;7.30;87.50;;;;;;5032693;28;20175;-70
2021/01/01 10:39:39;;;;;;;4.23;3.83;;;7.20;87.40;;;;;;5031722;28;20222;-70
2021/01/01 10:42:05;;;;;;;3.58;3.28;;;7.30;86.60;;;;;;5033243;28;20178;-70
2021/01/01 10:44:31;;;;;;;3.53;3.15;;;7.40;86.60;;;;;;5033202;28;20194;-70
2021/01/01 10:46:57;;;;;;;2.43;2.23;;;7.50;87.00;;;;;;5032738;28;20660;-70
2021/01/01 10:49:23;;;;;;;4.67;2.57;;;7.70;87.00;;;;;;5033272;28;20198;-70
2021/01/01 10:51:49;;;;;;;2.63;2.45;;;7.70;85.00;;;;;;5033195;28;20262;-70
2021/01/01 10:54:15;;;;;;;1.50;1.40;;;7.50;85.10;;;;;;5033192;28;20175;-70
2021/01/01 10:56:44;;;;;;;1.85;1.75;;;7.30;85.90;;;;;;5032914;28;20624;-70
2021/01/01 10:59:09;;;;;;;9.07;1.67;;;7.30;85.80;;;;;;5033069;28;20194;-70
2021/01/01 11:01:35;;;;;;;1.20;1.20;;;7.40;86.00;;;;;;5032796;28;20195;-70
2021/01/01 11:04:01;;;;;;;1.93;1.83;;;7.40;86.20;;;;;;5032825;28;20175;-70
2021/01/01 11:06:27;;;;;;;2.83;1.95;;;7.30;86.20;;;;;;5032669;28;20203;-70
2021/01/01 11:08:52;;;;;;;3.80;1.80;;;7.20;86.10;;;;;;5032795;28;20736;-70
2021/01/01 11:11:22;;;;;;;1.80;1.70;;;7.20;85.10;;;;;;5032840;28;20259;-70
2021/01/01 11:13:52;;;;;;;4.68;3.88;;;7.00;86.10;;;;;;5035577;28;20166;-71
2021/01/01 12:22:52;;;;;;;2.42;2.22;;;7.20;90.00;;;;;;5035501;28;20225;-71
2021/01/01 12:25:18;;;;;;;2.50;2.30;;;7.20;89.50;;;;;;5034435;28;20175;-70
2021/01/01 12:27:45;;;;;;;2.33;2.13;;;7.20;88.90;;;;;;5035162;28;20209;-70
2021/01/01 12:30:12;;;;;;;2.28;2.05;;;7.20;88.30;;;;;;5034954;28;20221;-70
2021/01/01 12:32:39;;;;;;;2.00;1.55;;;7.00;88.70;;;;;;5035045;28;20182;-70
2021/01/01 12:35:05;;;;;;;2.28;2.17;;;6.90;89.90;;;;;;5035062;28;20174;-70
2021/01/01 12:37:31;;;;;;;2.35;1.85;;;6.40;90.40;;;;;;5034805;28;20552;-70
2021/01/01 12:39:57;;;;;;;1.83;1.73;;;6.50;91.00;;;;;;5034755;28;20183;-71
2021/01/01 12:42:22;;;;;;;1.93;1.83;;;6.50;90.90;;;;;;5035178;28;20597;-70
2021/01/01 12:44:48;;;;;;;2.37;2.17;;;6.50;90.70;;;;;;5035045;28;20217;-70
2021/01/01 12:47:14;;;;;;;2.27;2.07;;;6.50;90.80;;;;;;5034609;28;20198;-70
2021/01/01 12:49:41;;;;;;;3.42;2.92;;;6.30;91.30;;;;;;5034612;28;20269;-70
2021/01/01 12:52:07;;;;;;;4.25;2.60;;;6.20;91.40;;;;;;5034511;28;20179;-70
2021/01/01 12:54:33;;;;;;;2.47;2.27;;;6.20;91.30;;;;;;5034507;28;20306;-70
2021/01/01 12:56:58;;;;;;;1.73;1.63;;;6.00;91.60;;;;;;5034350;28;20178;-70
2021/01/01 12:59:24;;;;;;;4.60;2.77;;;6.00;91.80;;;;;;5034381;28;20205;-70
2021/01/01 13:01:50;;;;;;;2.40;2.20;;;5.90;91.70;;;;;;5034395;28;20645;-70
2021/01/01 13:04:15;;;;;;;2.40;1.90;;;5.80;91.80;;;;;;5034528;28;20236;-70
2021/01/01 13:06:41;;;;;;;2.80;2.60;;;5.80;91.90;;;;;;5034053;28;20190;-70
2021/01/01 13:09:07;;;;;;;2.70;2.07;;;5.70;91.80;;;;;;5034448;28;20195;-70
2021/01/01 13:11:32;;;;;;;2.77;2.57;;;5.50;91.90;;;;;;5034250;28;20172;-70
2021/01/01 13:13:59;;;;;;;12.53;7.13;;;5.40;92.40;;;;;;5034227;28;20174;-70
2021/01/01 13:16:28;;;;;;;11.80;9.95;;;5.40;92.30;;;;;;5033955;28;20181;-70
2021/01/01 13:18:55;;;;;;;20.42;18.35;;;5.60;92.20;;;;;;5034100;28;20248;-70
2021/01/01 13:21:29;;;;;;;2.60;2.40;;;5.50;92.20;;;;;;5033948;28;20178;-70
2021/01/01 13:23:55;;;;;;;4.30;3.95;;;5.40;92.20;;;;;;5034226;28;20200;-70
2021/01/01 13:26:22;;;;;;;2.97;2.35;;;5.20;92.40;;;;;;5032528;28;20563;-70
2021/01/01 13:28:48;;;;;;;2.47;2.17;;;5.30;92.80;;;;;;5033953;28;20198;-70
2021/01/01 13:31:15;;;;;;;2.45;2.10;;;5.30;92.80;;;;;;5033925;28;20213;-70
2021/01/01 13:33:41;;;;;;;5.38;3.60;;;5.40;92.80;;;;;;5033952;28;20178;-70
2021/01/01 13:36:13;;;;;;;2.40;2.30;;;5.20;92.80;;;;;;5033779;28;20194;-70
2021/01/01 13:38:39;;;;;;;2.88;2.40;;;5.10;93.20;;;;;;5033884;28;20183;-70
2021/01/01 13:41:05;;;;;;;3.85;1.98;;;5.10;93.40;;;;;;5032422;28;20632;-70
2021/01/01 13:43:30;;;;;;;3.47;2.90;;;5.00;93.40;;;;;;5033814;28;20171;-70
2021/01/01 13:45:56;;;;;;;2.60;2.30;;;4.80;93.70;;;;;;5033662;28;20178;-70
2021/01/01 13:48:21;;;;;;;3.47;2.80;;;4.60;93.80;;;;;;5033662;28;20599;-70
2021/01/01 13:50:47;;;;;;;3.20;2.47;;;4.40;94.10;;;;;;5034047;28;20205;-70
2021/01/01 13:53:13;;;;;;;3.10;2.80;;;4.30;94.80;;;;;;5033741;28;20613;-70
2021/01/01 13:55:38;;;;;;;3.40;3.10;;;4.10;95.30;;;;;;5033487;28;20171;-70
2021/01/01 13:58:04;;;;;;;3.37;2.40;;;4.00;96.10;;;;;;5033656;28;20257;-70
2021/01/01 14:00:29;;;;;;;6.30;4.80;;;3.80;96.10;;;;;;5033189;28;20191;-70
2021/01/01 14:02:56;;;;;;;5.30;3.50;;;3.70;96.50;;;;;;5033621;28;20178;-70
2021/01/01 14:05:22;;;;;;;4.10;3.33;;;3.70;96.90;;;;;;5033672;28;20173;-70
2021/01/01 14:07:48;;;;;;;4.00;3.70;;;3.80;96.90;;;;;;5033332;28;20217;-70
2021/01/01 14:10:13;;;;;;;5.93;4.50;;;3.80;97.00;;;;;;5033325;28;20187;-70
2021/01/01 14:12:39;;;;;;;5.20;4.50;;;3.90;97.00;;;;;;5033475;28;20404;-70